Uraga Maru — JD2163 — position and weather

sailwx.info

Track history (hours):
 
Tides and Currents Weather Stations Pressure Air Temp Water Temp Dewpoint Dewpoint Depression Visibility Wind Speed Wind Dir Waves Ship Positions

Uraga Maru

Last reported at 2015-Sep-02 18:33 UTC. Time now 2015-Sep-02 19:00 UTC.
Position N 35°13' E 139°43'.

Length 40 m; draft 2.8 m.

Type: Tug. MMSI: 431101119.

Date/timePositionNaut miles runAvg speedWind from/ knotsBaromVisibWave heightAir tempDewpointWater temp
2015-Sep-02 18:33N 35°13' E 139°43'0 0.0
2015-Sep-02 17:33N 35°13' E 139°43'3 3.1
2015-Sep-02 16:33N 35°15' E 139°46'1010.1
2015-Sep-02 15:33N 35°24' E 139°41'1 0.6
2015-Sep-02 14:33N 35°23' E 139°40'0 0.0
2015-Sep-02 13:33N 35°23' E 139°40'1 0.6
2015-Sep-02 12:34N 35°23' E 139°41'4 4.2
2015-Sep-02 11:33N 35°19' E 139°39'1 0.6
2015-Sep-02 10:33N 35°19' E 139°40'9 8.9
2015-Sep-02 09:33N 35°27' E 139°45'2 2.0
2015-Sep-02 08:33N 35°25' E 139°47'1010.2
2015-Sep-02 07:33N 35°15' E 139°47'2 2.4
2015-Sep-02 06:33N 35°13' E 139°46'6 6.1
2015-Sep-02 05:32N 35°17' E 139°41'0 0.0
2015-Sep-02 04:33N 35°17' E 139°41'2 2.1
2015-Sep-02 03:33N 35°19' E 139°39'4 3.8
2015-Sep-02 02:33N 35°18' E 139°43'4 4.3
2015-Sep-02 01:33N 35°13' E 139°43'0 0.0
2015-Sep-02 00:33N 35°13' E 139°43'0 0.0
2015-Sep-01 23:33N 35°13' E 139°43'0 0.0
2015-Sep-01 22:33N 35°13' E 139°43'0 0.0
2015-Sep-01 21:33N 35°13' E 139°43'0 0.0
2015-Sep-01 20:32N 35°13' E 139°43'0 0.0
2015-Sep-01 19:33N 35°13' E 139°43'0 0.0
2015-Sep-01 18:33N 35°13' E 139°43'0 0.0
2015-Sep-01 17:33N 35°13' E 139°43'0 0.0
2015-Sep-01 16:33N 35°13' E 139°43'0 0.0
2015-Sep-01 15:33N 35°13' E 139°43'0 0.0
2015-Sep-01 14:33N 35°13' E 139°43'0 0.0
2015-Sep-01 13:33N 35°13' E 139°43'0 0.0
2015-Sep-01 12:33N 35°13' E 139°43'0 0.0
2015-Sep-01 11:33N 35°13' E 139°43'0 0.0
2015-Sep-01 10:33N 35°13' E 139°43'0 0.0
2015-Sep-01 09:33N 35°13' E 139°43'0 0.0
2015-Sep-01 08:33N 35°13' E 139°43'0 0.0
2015-Sep-01 07:33N 35°13' E 139°43'0 0.0
2015-Sep-01 06:33N 35°13' E 139°43'0 0.0
2015-Sep-01 05:32N 35°13' E 139°43'5 4.7
2015-Sep-01 04:32N 35°18' E 139°44'1111.6
2015-Sep-01 03:33N 35°28' E 139°50'1312.9
2015-Sep-01 02:34N 35°35' E 140°03'1 0.6
2015-Sep-01 01:33N 35°35' E 140°04'0 0.0
2015-Sep-01 00:33N 35°35' E 140°04'1212.2
2015-Aug-31 23:34N 35°27' E 139°52'1110.8
2015-Aug-31 22:33N 35°18' E 139°44'7 7.1
2015-Aug-31 21:33N 35°11' E 139°46'4 3.6
2015-Aug-31 20:33N 35°13' E 139°43'0 0.0
2015-Aug-31 19:33N 35°13' E 139°43'0 0.0
2015-Aug-31 18:33N 35°13' E 139°43'0 0.0
2015-Aug-31 17:32N 35°13' E 139°43'0 0.0
2015-Aug-31 16:33N 35°13' E 139°43'0 0.0
2015-Aug-31 15:33N 35°13' E 139°43'0 0.0
2015-Aug-31 14:33N 35°13' E 139°43'0 0.0
2015-Aug-31 13:32N 35°13' E 139°43'0 0.0
2015-Aug-31 12:33N 35°13' E 139°43'0 0.0
2015-Aug-31 11:33N 35°13' E 139°43'0 0.0
2015-Aug-31 10:30N 35°13' E 139°43'0 0.0
2015-Aug-31 09:32N 35°13' E 139°43'1 0.7
2015-Aug-31 08:33N 35°13' E 139°44'  
2015-Aug-25 00:33N 35°08' E 139°38'  
Track history (hours):
 
Tides and Currents Weather Stations Pressure Air Temp Water Temp Dewpoint Dewpoint Depression Visibility Wind Speed Wind Dir Waves Ship Positions

Uraga Maru

Last reported at 2015-Sep-02 18:33 UTC. Time now 2015-Sep-02 19:00 UTC.
Position N 35°13' E 139°43'.

Length 40 m; draft 2.8 m.

Type: Tug. MMSI: 431101119.

Date/timePositionNaut miles runAvg speedWind from/ knotsBaromVisibWave heightAir tempDewpointWater temp
2015-Sep-02 18:33N 35°13' E 139°43'0 0.0
2015-Sep-02 17:33N 35°13' E 139°43'3 3.1
2015-Sep-02 16:33N 35°15' E 139°46'1010.1
2015-Sep-02 15:33N 35°24' E 139°41'1 0.6
2015-Sep-02 14:33N 35°23' E 139°40'0 0.0
2015-Sep-02 13:33N 35°23' E 139°40'1 0.6
2015-Sep-02 12:34N 35°23' E 139°41'4 4.2
2015-Sep-02 11:33N 35°19' E 139°39'1 0.6
2015-Sep-02 10:33N 35°19' E 139°40'9 8.9
2015-Sep-02 09:33N 35°27' E 139°45'2 2.0
2015-Sep-02 08:33N 35°25' E 139°47'1010.2
2015-Sep-02 07:33N 35°15' E 139°47'2 2.4
2015-Sep-02 06:33N 35°13' E 139°46'6 6.1
2015-Sep-02 05:32N 35°17' E 139°41'0 0.0
2015-Sep-02 04:33N 35°17' E 139°41'2 2.1
2015-Sep-02 03:33N 35°19' E 139°39'4 3.8
2015-Sep-02 02:33N 35°18' E 139°43'4 4.3
2015-Sep-02 01:33N 35°13' E 139°43'0 0.0
2015-Sep-02 00:33N 35°13' E 139°43'0 0.0
2015-Sep-01 23:33N 35°13' E 139°43'0 0.0
2015-Sep-01 22:33N 35°13' E 139°43'0 0.0
2015-Sep-01 21:33N 35°13' E 139°43'0 0.0
2015-Sep-01 20:32N 35°13' E 139°43'0 0.0
2015-Sep-01 19:33N 35°13' E 139°43'0 0.0
2015-Sep-01 18:33N 35°13' E 139°43'0 0.0
2015-Sep-01 17:33N 35°13' E 139°43'0 0.0
2015-Sep-01 16:33N 35°13' E 139°43'0 0.0
2015-Sep-01 15:33N 35°13' E 139°43'0 0.0
2015-Sep-01 14:33N 35°13' E 139°43'0 0.0
2015-Sep-01 13:33N 35°13' E 139°43'0 0.0
2015-Sep-01 12:33N 35°13' E 139°43'0 0.0
2015-Sep-01 11:33N 35°13' E 139°43'0 0.0
2015-Sep-01 10:33N 35°13' E 139°43'0 0.0
2015-Sep-01 09:33N 35°13' E 139°43'0 0.0
2015-Sep-01 08:33N 35°13' E 139°43'0 0.0
2015-Sep-01 07:33N 35°13' E 139°43'0 0.0
2015-Sep-01 06:33N 35°13' E 139°43'0 0.0
2015-Sep-01 05:32N 35°13' E 139°43'5 4.7
2015-Sep-01 04:32N 35°18' E 139°44'1111.6
2015-Sep-01 03:33N 35°28' E 139°50'1312.9
2015-Sep-01 02:34N 35°35' E 140°03'1 0.6
2015-Sep-01 01:33N 35°35' E 140°04'0 0.0
2015-Sep-01 00:33N 35°35' E 140°04'1212.2
2015-Aug-31 23:34N 35°27' E 139°52'1110.8
2015-Aug-31 22:33N 35°18' E 139°44'7 7.1
2015-Aug-31 21:33N 35°11' E 139°46'4 3.6
2015-Aug-31 20:33N 35°13' E 139°43'0 0.0
2015-Aug-31 19:33N 35°13' E 139°43'0 0.0
2015-Aug-31 18:33N 35°13' E 139°43'0 0.0
2015-Aug-31 17:32N 35°13' E 139°43'0 0.0
2015-Aug-31 16:33N 35°13' E 139°43'0 0.0
2015-Aug-31 15:33N 35°13' E 139°43'0 0.0
2015-Aug-31 14:33N 35°13' E 139°43'0 0.0
2015-Aug-31 13:32N 35°13' E 139°43'0 0.0
2015-Aug-31 12:33N 35°13' E 139°43'0 0.0
2015-Aug-31 11:33N 35°13' E 139°43'0 0.0
2015-Aug-31 10:30N 35°13' E 139°43'0 0.0
2015-Aug-31 09:32N 35°13' E 139°43'1 0.7
2015-Aug-31 08:33N 35°13' E 139°44'  
2015-Aug-25 00:33N 35°08' E 139°38'  

Dump ship's entire track history